sensor_id;sensor_type;location;lat;lon;timestamp;temperature;humidity
74458;SHT31;62896;51.032;3.712;2022-09-13T00:02:30;20.3;70
74458;SHT31;62896;51.032;3.712;2022-09-13T00:05:50;20.3;70
74458;SHT31;62896;51.032;3.712;2022-09-13T00:09:10;20.3;71
74458;SHT31;62896;51.032;3.712;2022-09-13T00:12:30;20.3;71
74458;SHT31;62896;51.032;3.712;2022-09-13T00:15:50;20.3;71
74458;SHT31;62896;51.032;3.712;2022-09-13T00:19:10;20.3;71
74458;SHT31;62896;51.032;3.712;2022-09-13T00:22:30;20.3;71
74458;SHT31;62896;51.032;3.712;2022-09-13T00:25:50;20.3;71
74458;SHT31;62896;51.032;3.712;2022-09-13T00:29:10;20.1;72
74458;SHT31;62896;51.032;3.712;2022-09-13T00:32:30;20.1;72
74458;SHT31;62896;51.032;3.712;2022-09-13T00:35:50;20.1;72
74458;SHT31;62896;51.032;3.712;2022-09-13T00:39:10;20;72
74458;SHT31;62896;51.032;3.712;2022-09-13T00:42:30;20;72
74458;SHT31;62896;51.032;3.712;2022-09-13T00:45:50;20;72
74458;SHT31;62896;51.032;3.712;2022-09-13T00:49:11;20.1;72
74458;SHT31;62896;51.032;3.712;2022-09-13T00:52:30;20.1;72
74458;SHT31;62896;51.032;3.712;2022-09-13T00:55:50;20.1;72
74458;SHT31;62896;51.032;3.712;2022-09-13T00:59:12;20.1;72
74458;SHT31;62896;51.032;3.712;2022-09-13T01:02:30;20.1;72
74458;SHT31;62896;51.032;3.712;2022-09-13T01:05:51;20.1;72
74458;SHT31;62896;51.032;3.712;2022-09-13T01:09:10;20.1;72
74458;SHT31;62896;51.032;3.712;2022-09-13T01:12:31;20.1;72
74458;SHT31;62896;51.032;3.712;2022-09-13T01:15:50;20.1;72
74458;SHT31;62896;51.032;3.712;2022-09-13T01:19:10;19.8;74
74458;SHT31;62896;51.032;3.712;2022-09-13T01:22:38;19.8;74
74458;SHT31;62896;51.032;3.712;2022-09-13T01:26:06;19.8;74
74458;SHT31;62896;51.032;3.712;2022-09-13T01:29:15;19.8;74
74458;SHT31;62896;51.032;3.712;2022-09-13T01:32:32;19.8;74
74458;SHT31;62896;51.032;3.712;2022-09-13T01:35:54;19.8;74
74458;SHT31;62896;51.032;3.712;2022-09-13T01:39:11;19.7;75
74458;SHT31;62896;51.032;3.712;2022-09-13T01:42:34;19.7;75
74458;SHT31;62896;51.032;3.712;2022-09-13T01:45:52;19.7;75
74458;SHT31;62896;51.032;3.712;2022-09-13T01:49:11;19.6;75
74458;SHT31;62896;51.032;3.712;2022-09-13T01:52:32;19.6;75
74458;SHT31;62896;51.032;3.712;2022-09-13T01:55:50;19.6;75
74458;SHT31;62896;51.032;3.712;2022-09-13T01:59:10;19.5;76
74458;SHT31;62896;51.032;3.712;2022-09-13T02:02:31;19.5;76
74458;SHT31;62896;51.032;3.712;2022-09-13T02:05:51;19.5;76
74458;SHT31;62896;51.032;3.712;2022-09-13T02:09:10;19.5;76
74458;SHT31;62896;51.032;3.712;2022-09-13T02:12:30;19.5;76
74458;SHT31;62896;51.032;3.712;2022-09-13T02:15:51;19.5;76
74458;SHT31;62896;51.032;3.712;2022-09-13T02:19:10;19.4;77
74458;SHT31;62896;51.032;3.712;2022-09-13T02:22:30;19.4;77
74458;SHT31;62896;51.032;3.712;2022-09-13T02:25:50;19.4;77
74458;SHT31;62896;51.032;3.712;2022-09-13T02:29:10;19.4;77
74458;SHT31;62896;51.032;3.712;2022-09-13T02:32:30;19.4;77
74458;SHT31;62896;51.032;3.712;2022-09-13T02:35:50;19.4;77
74458;SHT31;62896;51.032;3.712;2022-09-13T02:39:11;19.3;77
74458;SHT31;62896;51.032;3.712;2022-09-13T02:42:32;19.3;77
74458;SHT31;62896;51.032;3.712;2022-09-13T02:45:51;19.3;77
74458;SHT31;62896;51.032;3.712;2022-09-13T02:49:10;19.3;78
74458;SHT31;62896;51.032;3.712;2022-09-13T02:52:32;19.3;78
74458;SHT31;62896;51.032;3.712;2022-09-13T02:55:51;19.3;78
74458;SHT31;62896;51.032;3.712;2022-09-13T02:59:12;19.2;78
74458;SHT31;62896;51.032;3.712;2022-09-13T03:02:30;19.2;78
74458;SHT31;62896;51.032;3.712;2022-09-13T03:05:50;19.2;78
74458;SHT31;62896;51.032;3.712;2022-09-13T03:09:10;19.2;78
74458;SHT31;62896;51.032;3.712;2022-09-13T03:12:35;19.2;78
74458;SHT31;62896;51.032;3.712;2022-09-13T03:15:53;19.2;78
74458;SHT31;62896;51.032;3.712;2022-09-13T03:19:16;19.1;79
74458;SHT31;62896;51.032;3.712;2022-09-13T03:23:35;19.1;79
74458;SHT31;62896;51.032;3.712;2022-09-13T03:25:58;19.1;79
74458;SHT31;62896;51.032;3.712;2022-09-13T03:29:14;19.1;79
74458;SHT31;62896;51.032;3.712;2022-09-13T03:32:32;19.1;79
74458;SHT31;62896;51.032;3.712;2022-09-13T03:35:51;19.1;79
74458;SHT31;62896;51.032;3.712;2022-09-13T03:39:11;19.1;79
74458;SHT31;62896;51.032;3.712;2022-09-13T03:42:31;19.1;79
74458;SHT31;62896;51.032;3.712;2022-09-13T03:45:52;19.1;79
74458;SHT31;62896;51.032;3.712;2022-09-13T03:49:11;19.1;79
74458;SHT31;62896;51.032;3.712;2022-09-13T03:52:30;19.1;79
74458;SHT31;62896;51.032;3.712;2022-09-13T03:55:50;19.1;79
74458;SHT31;62896;51.032;3.712;2022-09-13T03:59:10;19.1;79
74458;SHT31;62896;51.032;3.712;2022-09-13T04:02:30;19.1;79
74458;SHT31;62896;51.032;3.712;2022-09-13T04:05:50;19.1;79
74458;SHT31;62896;51.032;3.712;2022-09-13T04:09:10;19;79
74458;SHT31;62896;51.032;3.712;2022-09-13T04:12:30;19;79
74458;SHT31;62896;51.032;3.712;2022-09-13T04:15:50;19;79
74458;SHT31;62896;51.032;3.712;2022-09-13T04:19:10;18.9;80
74458;SHT31;62896;51.032;3.712;2022-09-13T04:22:30;18.9;80
74458;SHT31;62896;51.032;3.712;2022-09-13T04:25:50;18.9;80
74458;SHT31;62896;51.032;3.712;2022-09-13T04:29:10;18.9;80
74458;SHT31;62896;51.032;3.712;2022-09-13T04:32:30;18.9;80
74458;SHT31;62896;51.032;3.712;2022-09-13T04:35:53;18.9;80
74458;SHT31;62896;51.032;3.712;2022-09-13T04:39:10;18.8;80
74458;SHT31;62896;51.032;3.712;2022-09-13T04:42:30;18.8;80
74458;SHT31;62896;51.032;3.712;2022-09-13T04:45:50;18.8;80
74458;SHT31;62896;51.032;3.712;2022-09-13T04:49:10;18.9;80
74458;SHT31;62896;51.032;3.712;2022-09-13T04:52:30;18.9;80
74458;SHT31;62896;51.032;3.712;2022-09-13T04:55:50;18.9;80
74458;SHT31;62896;51.032;3.712;2022-09-13T04:59:10;18.8;81
74458;SHT31;62896;51.032;3.712;2022-09-13T05:02:30;18.8;81
74458;SHT31;62896;51.032;3.712;2022-09-13T05:05:50;18.8;81
74458;SHT31;62896;51.032;3.712;2022-09-13T05:09:10;18.8;80
74458;SHT31;62896;51.032;3.712;2022-09-13T05:12:30;18.8;80
74458;SHT31;62896;51.032;3.712;2022-09-13T05:15:53;18.8;80
74458;SHT31;62896;51.032;3.712;2022-09-13T05:19:10;18.9;80
74458;SHT31;62896;51.032;3.712;2022-09-13T05:22:30;18.9;80
74458;SHT31;62896;51.032;3.712;2022-09-13T05:25:51;18.9;80
74458;SHT31;62896;51.032;3.712;2022-09-13T05:29:10;18.8;80
74458;SHT31;62896;51.032;3.712;2022-09-13T05:32:30;18.8;80
74458;SHT31;62896;51.032;3.712;2022-09-13T05:35:50;18.8;80
74458;SHT31;62896;51.032;3.712;2022-09-13T05:39:11;19;79
74458;SHT31;62896;51.032;3.712;2022-09-13T05:42:30;19;79
74458;SHT31;62896;51.032;3.712;2022-09-13T05:45:50;19;79
74458;SHT31;62896;51.032;3.712;2022-09-13T05:49:10;19;79
74458;SHT31;62896;51.032;3.712;2022-09-13T05:52:30;19;79
74458;SHT31;62896;51.032;3.712;2022-09-13T05:55:50;19;79
74458;SHT31;62896;51.032;3.712;2022-09-13T05:59:10;19.1;79
74458;SHT31;62896;51.032;3.712;2022-09-13T06:02:30;19.1;79
74458;SHT31;62896;51.032;3.712;2022-09-13T06:05:53;19.1;79
74458;SHT31;62896;51.032;3.712;2022-09-13T06:09:10;19.2;78
74458;SHT31;62896;51.032;3.712;2022-09-13T06:12:30;19.2;78
74458;SHT31;62896;51.032;3.712;2022-09-13T06:15:50;19.2;78
74458;SHT31;62896;51.032;3.712;2022-09-13T06:19:10;19.3;78
74458;SHT31;62896;51.032;3.712;2022-09-13T06:22:30;19.3;78
74458;SHT31;62896;51.032;3.712;2022-09-13T06:25:50;19.3;78
74458;SHT31;62896;51.032;3.712;2022-09-13T06:29:10;19.4;78
74458;SHT31;62896;51.032;3.712;2022-09-13T06:32:30;19.4;78
74458;SHT31;62896;51.032;3.712;2022-09-13T06:35:50;19.4;78
74458;SHT31;62896;51.032;3.712;2022-09-13T06:39:10;19.4;78
74458;SHT31;62896;51.032;3.712;2022-09-13T06:42:32;19.4;78
74458;SHT31;62896;51.032;3.712;2022-09-13T06:45:50;19.4;78
74458;SHT31;62896;51.032;3.712;2022-09-13T06:49:10;19.7;77
74458;SHT31;62896;51.032;3.712;2022-09-13T06:52:30;19.7;77
74458;SHT31;62896;51.032;3.712;2022-09-13T06:55:58;19.7;77
74458;SHT31;62896;51.032;3.712;2022-09-13T06:59:10;20;75
74458;SHT31;62896;51.032;3.712;2022-09-13T07:02:30;20;75
74458;SHT31;62896;51.032;3.712;2022-09-13T07:05:50;20;75
74458;SHT31;62896;51.032;3.712;2022-09-13T07:09:10;20.2;74
74458;SHT31;62896;51.032;3.712;2022-09-13T07:12:30;20.2;74
74458;SHT31;62896;51.032;3.712;2022-09-13T07:15:50;20.2;74
74458;SHT31;62896;51.032;3.712;2022-09-13T07:19:11;20.5;74
74458;SHT31;62896;51.032;3.712;2022-09-13T07:22:30;20.5;74
74458;SHT31;62896;51.032;3.712;2022-09-13T07:25:52;20.5;74
74458;SHT31;62896;51.032;3.712;2022-09-13T07:29:11;20.7;73
74458;SHT31;62896;51.032;3.712;2022-09-13T07:32:30;20.7;73
74458;SHT31;62896;51.032;3.712;2022-09-13T07:35:53;20.7;73
74458;SHT31;62896;51.032;3.712;2022-09-13T07:39:10;21.1;72
74458;SHT31;62896;51.032;3.712;2022-09-13T07:42:30;21.1;72
74458;SHT31;62896;51.032;3.712;2022-09-13T07:45:57;21.1;72
74458;SHT31;62896;51.032;3.712;2022-09-13T07:49:10;21.5;69
74458;SHT31;62896;51.032;3.712;2022-09-13T07:52:30;21.5;69
74458;SHT31;62896;51.032;3.712;2022-09-13T07:55:50;21.5;69
74458;SHT31;62896;51.032;3.712;2022-09-13T07:59:11;22;67
74458;SHT31;62896;51.032;3.712;2022-09-13T08:02:30;22;67
74458;SHT31;62896;51.032;3.712;2022-09-13T08:05:50;22;67
74458;SHT31;62896;51.032;3.712;2022-09-13T08:09:10;22.5;65
74458;SHT31;62896;51.032;3.712;2022-09-13T08:12:30;22.5;65
74458;SHT31;62896;51.032;3.712;2022-09-13T08:15:50;22.5;65
74458;SHT31;62896;51.032;3.712;2022-09-13T08:19:11;22.9;64
74458;SHT31;62896;51.032;3.712;2022-09-13T08:22:30;22.9;64
74458;SHT31;62896;51.032;3.712;2022-09-13T08:25:50;22.9;64
74458;SHT31;62896;51.032;3.712;2022-09-13T08:29:10;22.7;65
74458;SHT31;62896;51.032;3.712;2022-09-13T08:32:30;22.7;65
74458;SHT31;62896;51.032;3.712;2022-09-13T08:35:50;22.7;65
74458;SHT31;62896;51.032;3.712;2022-09-13T08:39:10;22.9;65
74458;SHT31;62896;51.032;3.712;2022-09-13T08:42:34;22.9;65
74458;SHT31;62896;51.032;3.712;2022-09-13T08:45:50;22.9;65
74458;SHT31;62896;51.032;3.712;2022-09-13T08:49:11;22.9;66
74458;SHT31;62896;51.032;3.712;2022-09-13T08:52:32;22.9;66
74458;SHT31;62896;51.032;3.712;2022-09-13T08:55:52;22.9;66
74458;SHT31;62896;51.032;3.712;2022-09-13T08:59:15;22.8;68
74458;SHT31;62896;51.032;3.712;2022-09-13T09:02:37;22.8;68
74458;SHT31;62896;51.032;3.712;2022-09-13T09:05:50;22.8;68
74458;SHT31;62896;51.032;3.712;2022-09-13T09:09:12;22.8;68
74458;SHT31;62896;51.032;3.712;2022-09-13T09:12:31;22.8;68
74458;SHT31;62896;51.032;3.712;2022-09-13T09:15:50;22.8;68
74458;SHT31;62896;51.032;3.712;2022-09-13T09:19:14;22.9;67
74458;SHT31;62896;51.032;3.712;2022-09-13T09:22:31;22.9;67
74458;SHT31;62896;51.032;3.712;2022-09-13T09:26:04;22.9;67
74458;SHT31;62896;51.032;3.712;2022-09-13T09:29:13;23;68
74458;SHT31;62896;51.032;3.712;2022-09-13T09:32:35;23;68
74458;SHT31;62896;51.032;3.712;2022-09-13T09:35:52;23;68
74458;SHT31;62896;51.032;3.712;2022-09-13T09:39:10;23.1;67
74458;SHT31;62896;51.032;3.712;2022-09-13T09:42:31;23.1;67
74458;SHT31;62896;51.032;3.712;2022-09-13T09:45:50;23.1;67
74458;SHT31;62896;51.032;3.712;2022-09-13T09:49:12;23.4;65
74458;SHT31;62896;51.032;3.712;2022-09-13T09:52:30;23.4;65
74458;SHT31;62896;51.032;3.712;2022-09-13T09:55:51;23.4;65
74458;SHT31;62896;51.032;3.712;2022-09-13T09:59:15;23.7;65
74458;SHT31;62896;51.032;3.712;2022-09-13T10:02:30;23.7;65
74458;SHT31;62896;51.032;3.712;2022-09-13T10:05:50;23.7;65
74458;SHT31;62896;51.032;3.712;2022-09-13T10:09:13;23.9;64
74458;SHT31;62896;51.032;3.712;2022-09-13T10:12:31;23.9;64
74458;SHT31;62896;51.032;3.712;2022-09-13T10:15:51;23.9;64
74458;SHT31;62896;51.032;3.712;2022-09-13T10:19:25;23.9;63
74458;SHT31;62896;51.032;3.712;2022-09-13T10:22:30;23.9;63
74458;SHT31;62896;51.032;3.712;2022-09-13T10:25:56;23.9;63
74458;SHT31;62896;51.032;3.712;2022-09-13T10:29:12;24.3;61
74458;SHT31;62896;51.032;3.712;2022-09-13T10:32:30;24.3;61
74458;SHT31;62896;51.032;3.712;2022-09-13T10:35:51;24.3;61
74458;SHT31;62896;51.032;3.712;2022-09-13T10:39:12;24.4;61
74458;SHT31;62896;51.032;3.712;2022-09-13T10:42:30;24.4;61
74458;SHT31;62896;51.032;3.712;2022-09-13T10:45:50;24.4;61
74458;SHT31;62896;51.032;3.712;2022-09-13T10:49:33;24.7;60
74458;SHT31;62896;51.032;3.712;2022-09-13T10:52:31;24.7;60
74458;SHT31;62896;51.032;3.712;2022-09-13T10:55:51;24.7;60
74458;SHT31;62896;51.032;3.712;2022-09-13T10:59:15;24.8;61
74458;SHT31;62896;51.032;3.712;2022-09-13T11:02:38;24.8;61
74458;SHT31;62896;51.032;3.712;2022-09-13T11:05:51;24.8;61
74458;SHT31;62896;51.032;3.712;2022-09-13T11:09:10;25.4;59
74458;SHT31;62896;51.032;3.712;2022-09-13T11:12:30;25.4;59
74458;SHT31;62896;51.032;3.712;2022-09-13T11:15:52;25.4;59
74458;SHT31;62896;51.032;3.712;2022-09-13T11:19:47;25.2;59
74458;SHT31;62896;51.032;3.712;2022-09-13T11:22:37;25.2;59
74458;SHT31;62896;51.032;3.712;2022-09-13T11:25:53;25.2;59
74458;SHT31;62896;51.032;3.712;2022-09-13T11:29:13;25.2;59
74458;SHT31;62896;51.032;3.712;2022-09-13T11:32:34;25.2;59
74458;SHT31;62896;51.032;3.712;2022-09-13T11:35:53;25.2;59
74458;SHT31;62896;51.032;3.712;2022-09-13T11:39:12;25.7;59
74458;SHT31;62896;51.032;3.712;2022-09-13T11:42:34;25.7;59
74458;SHT31;62896;51.032;3.712;2022-09-13T11:45:53;25.7;59
74458;SHT31;62896;51.032;3.712;2022-09-13T11:49:29;25.8;59
74458;SHT31;62896;51.032;3.712;2022-09-13T11:52:33;25.8;59
74458;SHT31;62896;51.032;3.712;2022-09-13T11:55:50;25.8;59
74458;SHT31;62896;51.032;3.712;2022-09-13T11:59:14;25.6;61
74458;SHT31;62896;51.032;3.712;2022-09-13T12:02:33;25.6;61
74458;SHT31;62896;51.032;3.712;2022-09-13T12:05:50;25.6;61
74458;SHT31;62896;51.032;3.712;2022-09-13T12:09:11;25.1;63
74458;SHT31;62896;51.032;3.712;2022-09-13T12:12:31;25.1;63
74458;SHT31;62896;51.032;3.712;2022-09-13T12:15:50;25.1;63
74458;SHT31;62896;51.032;3.712;2022-09-13T12:19:10;24.5;66
74458;SHT31;62896;51.032;3.712;2022-09-13T12:22:31;24.5;66
74458;SHT31;62896;51.032;3.712;2022-09-13T12:25:50;24.5;66
74458;SHT31;62896;51.032;3.712;2022-09-13T12:29:12;24.2;69
74458;SHT31;62896;51.032;3.712;2022-09-13T12:32:30;24.2;69
74458;SHT31;62896;51.032;3.712;2022-09-13T12:35:53;24.2;69
74458;SHT31;62896;51.032;3.712;2022-09-13T12:39:21;23.9;72
74458;SHT31;62896;51.032;3.712;2022-09-13T12:42:49;23.9;72
74458;SHT31;62896;51.032;3.712;2022-09-13T12:45:54;23.9;72
74458;SHT31;62896;51.032;3.712;2022-09-13T12:49:13;23.6;74
74458;SHT31;62896;51.032;3.712;2022-09-13T12:52:31;23.6;74
74458;SHT31;62896;51.032;3.712;2022-09-13T12:55:59;23.6;74
74458;SHT31;62896;51.032;3.712;2022-09-13T12:59:48;23.4;76
74458;SHT31;62896;51.032;3.712;2022-09-13T13:02:31;23.4;76
74458;SHT31;62896;51.032;3.712;2022-09-13T13:05:50;23.4;76
74458;SHT31;62896;51.032;3.712;2022-09-13T13:09:19;23.2;76
74458;SHT31;62896;51.032;3.712;2022-09-13T13:12:30;23.2;76
74458;SHT31;62896;51.032;3.712;2022-09-13T13:15:54;23.2;76
74458;SHT31;62896;51.032;3.712;2022-09-13T13:19:26;23;77
74458;SHT31;62896;51.032;3.712;2022-09-13T13:22:47;23;77
74458;SHT31;62896;51.032;3.712;2022-09-13T13:25:58;23;77
74458;SHT31;62896;51.032;3.712;2022-09-13T13:29:11;22.9;77
74458;SHT31;62896;51.032;3.712;2022-09-13T13:32:30;22.9;77
74458;SHT31;62896;51.032;3.712;2022-09-13T13:35:50;22.9;77
74458;SHT31;62896;51.032;3.712;2022-09-13T13:39:11;22.7;78
74458;SHT31;62896;51.032;3.712;2022-09-13T13:42:30;22.7;78
74458;SHT31;62896;51.032;3.712;2022-09-13T13:45:58;22.7;78
74458;SHT31;62896;51.032;3.712;2022-09-13T13:49:42;22.7;78
74458;SHT31;62896;51.032;3.712;2022-09-13T13:52:34;22.7;78
74458;SHT31;62896;51.032;3.712;2022-09-13T13:56:03;22.7;78
74458;SHT31;62896;51.032;3.712;2022-09-13T13:59:11;22.6;79
74458;SHT31;62896;51.032;3.712;2022-09-13T14:02:30;22.6;79
74458;SHT31;62896;51.032;3.712;2022-09-13T14:05:51;22.6;79
74458;SHT31;62896;51.032;3.712;2022-09-13T14:09:13;22.6;82
74458;SHT31;62896;51.032;3.712;2022-09-13T14:12:31;22.6;82
74458;SHT31;62896;51.032;3.712;2022-09-13T14:15:52;22.6;82
74458;SHT31;62896;51.032;3.712;2022-09-13T14:19:16;22.6;82
74458;SHT31;62896;51.032;3.712;2022-09-13T14:22:30;22.6;82
74458;SHT31;62896;51.032;3.712;2022-09-13T14:25:52;22.6;82
74458;SHT31;62896;51.032;3.712;2022-09-13T14:29:10;22.7;82
74458;SHT31;62896;51.032;3.712;2022-09-13T14:32:36;22.7;82
74458;SHT31;62896;51.032;3.712;2022-09-13T14:35:56;22.7;82
74458;SHT31;62896;51.032;3.712;2022-09-13T14:39:10;22.6;81
74458;SHT31;62896;51.032;3.712;2022-09-13T14:42:37;22.6;81
74458;SHT31;62896;51.032;3.712;2022-09-13T14:45:51;22.6;81
74458;SHT31;62896;51.032;3.712;2022-09-13T14:49:12;22.6;81
74458;SHT31;62896;51.032;3.712;2022-09-13T14:52:30;22.6;81
74458;SHT31;62896;51.032;3.712;2022-09-13T14:55:50;22.6;81
74458;SHT31;62896;51.032;3.712;2022-09-13T14:59:11;22.5;81
74458;SHT31;62896;51.032;3.712;2022-09-13T15:02:30;22.5;81
74458;SHT31;62896;51.032;3.712;2022-09-13T15:05:50;22.5;81
74458;SHT31;62896;51.032;3.712;2022-09-13T15:09:13;22.5;82
74458;SHT31;62896;51.032;3.712;2022-09-13T15:12:29;22.5;82
74458;SHT31;62896;51.032;3.712;2022-09-13T15:15:49;22.5;82
74458;SHT31;62896;51.032;3.712;2022-09-13T15:19:26;22.4;83
74458;SHT31;62896;51.032;3.712;2022-09-13T15:22:30;22.4;83
74458;SHT31;62896;51.032;3.712;2022-09-13T15:25:50;22.4;83
74458;SHT31;62896;51.032;3.712;2022-09-13T15:29:11;22.2;84
74458;SHT31;62896;51.032;3.712;2022-09-13T15:32:31;22.2;84
74458;SHT31;62896;51.032;3.712;2022-09-13T15:35:49;22.2;84
74458;SHT31;62896;51.032;3.712;2022-09-13T15:39:12;22.1;84
74458;SHT31;62896;51.032;3.712;2022-09-13T15:42:29;22.1;84
74458;SHT31;62896;51.032;3.712;2022-09-13T15:45:49;22.1;84
74458;SHT31;62896;51.032;3.712;2022-09-13T15:49:09;22.1;84
74458;SHT31;62896;51.032;3.712;2022-09-13T15:52:29;22.1;84
74458;SHT31;62896;51.032;3.712;2022-09-13T15:55:49;22.1;84
74458;SHT31;62896;51.032;3.712;2022-09-13T15:59:10;22;83
74458;SHT31;62896;51.032;3.712;2022-09-13T16:02:30;22;83
74458;SHT31;62896;51.032;3.712;2022-09-13T16:05:49;22;83
74458;SHT31;62896;51.032;3.712;2022-09-13T16:09:10;21.9;83
74458;SHT31;62896;51.032;3.712;2022-09-13T16:12:29;21.9;83
74458;SHT31;62896;51.032;3.712;2022-09-13T16:15:49;21.9;83
74458;SHT31;62896;51.032;3.712;2022-09-13T16:19:11;21.9;85
74458;SHT31;62896;51.032;3.712;2022-09-13T16:22:29;21.9;85
74458;SHT31;62896;51.032;3.712;2022-09-13T16:25:50;21.9;85
74458;SHT31;62896;51.032;3.712;2022-09-13T16:29:09;21.8;85
74458;SHT31;62896;51.032;3.712;2022-09-13T16:32:29;21.8;85
74458;SHT31;62896;51.032;3.712;2022-09-13T16:35:49;21.8;85
74458;SHT31;62896;51.032;3.712;2022-09-13T16:39:09;21.6;85
74458;SHT31;62896;51.032;3.712;2022-09-13T16:42:29;21.6;85
74458;SHT31;62896;51.032;3.712;2022-09-13T16:45:49;21.6;85
74458;SHT31;62896;51.032;3.712;2022-09-13T16:49:09;21.5;86
74458;SHT31;62896;51.032;3.712;2022-09-13T16:52:29;21.5;86
74458;SHT31;62896;51.032;3.712;2022-09-13T16:55:49;21.5;86
74458;SHT31;62896;51.032;3.712;2022-09-13T16:59:09;21.4;86
74458;SHT31;62896;51.032;3.712;2022-09-13T17:02:29;21.4;86
74458;SHT31;62896;51.032;3.712;2022-09-13T17:05:55;21.4;86
74458;SHT31;62896;51.032;3.712;2022-09-13T17:09:09;21.1;87
74458;SHT31;62896;51.032;3.712;2022-09-13T17:12:29;21.1;87
74458;SHT31;62896;51.032;3.712;2022-09-13T17:15:49;21.1;87
74458;SHT31;62896;51.032;3.712;2022-09-13T17:19:11;20.9;86
74458;SHT31;62896;51.032;3.712;2022-09-13T17:22:29;20.9;86
74458;SHT31;62896;51.032;3.712;2022-09-13T17:25:49;20.9;86
74458;SHT31;62896;51.032;3.712;2022-09-13T17:29:10;20.5;86
74458;SHT31;62896;51.032;3.712;2022-09-13T17:32:29;20.5;86
74458;SHT31;62896;51.032;3.712;2022-09-13T17:35:56;20.5;86
74458;SHT31;62896;51.032;3.712;2022-09-13T17:39:09;20.2;86
74458;SHT31;62896;51.032;3.712;2022-09-13T17:42:29;20.2;86
74458;SHT31;62896;51.032;3.712;2022-09-13T17:45:49;20.2;86
74458;SHT31;62896;51.032;3.712;2022-09-13T17:49:09;19.9;86
74458;SHT31;62896;51.032;3.712;2022-09-13T17:52:29;19.9;86
74458;SHT31;62896;51.032;3.712;2022-09-13T17:55:49;19.9;86
74458;SHT31;62896;51.032;3.712;2022-09-13T17:59:10;19.7;86
74458;SHT31;62896;51.032;3.712;2022-09-13T18:02:29;19.7;86
74458;SHT31;62896;51.032;3.712;2022-09-13T18:05:53;19.7;86
74458;SHT31;62896;51.032;3.712;2022-09-13T18:09:10;19.5;86
74458;SHT31;62896;51.032;3.712;2022-09-13T18:12:29;19.5;86
74458;SHT31;62896;51.032;3.712;2022-09-13T18:15:57;19.5;86
74458;SHT31;62896;51.032;3.712;2022-09-13T18:19:09;19.4;86
74458;SHT31;62896;51.032;3.712;2022-09-13T18:22:29;19.4;86
74458;SHT31;62896;51.032;3.712;2022-09-13T18:25:57;19.4;86
74458;SHT31;62896;51.032;3.712;2022-09-13T18:29:10;19.3;85
74458;SHT31;62896;51.032;3.712;2022-09-13T18:32:29;19.3;85
74458;SHT31;62896;51.032;3.712;2022-09-13T18:35:57;19.3;85
74458;SHT31;62896;51.032;3.712;2022-09-13T18:39:12;19.1;83
74458;SHT31;62896;51.032;3.712;2022-09-13T18:42:29;19.1;83
74458;SHT31;62896;51.032;3.712;2022-09-13T18:45:52;19.1;83
74458;SHT31;62896;51.032;3.712;2022-09-13T18:49:09;19.1;83
74458;SHT31;62896;51.032;3.712;2022-09-13T18:52:29;19.1;83
74458;SHT31;62896;51.032;3.712;2022-09-13T18:55:49;19.1;83
74458;SHT31;62896;51.032;3.712;2022-09-13T18:59:09;19.1;83
74458;SHT31;62896;51.032;3.712;2022-09-13T19:02:29;19.1;83
74458;SHT31;62896;51.032;3.712;2022-09-13T19:05:49;19.1;83
74458;SHT31;62896;51.032;3.712;2022-09-13T19:09:09;19;83
74458;SHT31;62896;51.032;3.712;2022-09-13T19:12:29;19;83
74458;SHT31;62896;51.032;3.712;2022-09-13T19:15:49;19;83
74458;SHT31;62896;51.032;3.712;2022-09-13T19:19:09;18.7;84
74458;SHT31;62896;51.032;3.712;2022-09-13T19:22:29;18.7;84
74458;SHT31;62896;51.032;3.712;2022-09-13T19:25:49;18.7;84
74458;SHT31;62896;51.032;3.712;2022-09-13T19:29:10;18.4;85
74458;SHT31;62896;51.032;3.712;2022-09-13T19:32:29;18.4;85
74458;SHT31;62896;51.032;3.712;2022-09-13T19:35:49;18.4;85
74458;SHT31;62896;51.032;3.712;2022-09-13T19:39:09;18.3;85
74458;SHT31;62896;51.032;3.712;2022-09-13T19:42:29;18.3;85
74458;SHT31;62896;51.032;3.712;2022-09-13T19:45:56;18.3;85
74458;SHT31;62896;51.032;3.712;2022-09-13T19:49:10;18.4;85
74458;SHT31;62896;51.032;3.712;2022-09-13T19:52:29;18.4;85
74458;SHT31;62896;51.032;3.712;2022-09-13T19:55:49;18.4;85
74458;SHT31;62896;51.032;3.712;2022-09-13T19:59:10;18.3;86
74458;SHT31;62896;51.032;3.712;2022-09-13T20:02:29;18.3;86
74458;SHT31;62896;51.032;3.712;2022-09-13T20:05:49;18.3;86
74458;SHT31;62896;51.032;3.712;2022-09-13T20:09:09;18;88
74458;SHT31;62896;51.032;3.712;2022-09-13T20:12:29;18;88
74458;SHT31;62896;51.032;3.712;2022-09-13T20:15:49;18;88
74458;SHT31;62896;51.032;3.712;2022-09-13T20:19:12;17.9;88
74458;SHT31;62896;51.032;3.712;2022-09-13T20:22:29;17.9;88
74458;SHT31;62896;51.032;3.712;2022-09-13T20:25:49;17.9;88
74458;SHT31;62896;51.032;3.712;2022-09-13T20:29:09;17.8;89
74458;SHT31;62896;51.032;3.712;2022-09-13T20:32:29;17.8;89
74458;SHT31;62896;51.032;3.712;2022-09-13T20:35:49;17.8;89
74458;SHT31;62896;51.032;3.712;2022-09-13T20:39:09;17.7;90
74458;SHT31;62896;51.032;3.712;2022-09-13T20:42:29;17.7;90
74458;SHT31;62896;51.032;3.712;2022-09-13T20:45:53;17.7;90
74458;SHT31;62896;51.032;3.712;2022-09-13T20:49:09;17.6;91
74458;SHT31;62896;51.032;3.712;2022-09-13T20:52:29;17.6;91
74458;SHT31;62896;51.032;3.712;2022-09-13T20:55:49;17.6;91
74458;SHT31;62896;51.032;3.712;2022-09-13T20:59:09;17.6;91
74458;SHT31;62896;51.032;3.712;2022-09-13T21:02:29;17.6;91
74458;SHT31;62896;51.032;3.712;2022-09-13T21:05:49;17.6;91
74458;SHT31;62896;51.032;3.712;2022-09-13T21:09:10;17.6;89
74458;SHT31;62896;51.032;3.712;2022-09-13T21:12:29;17.6;89
74458;SHT31;62896;51.032;3.712;2022-09-13T21:15:49;17.6;89
74458;SHT31;62896;51.032;3.712;2022-09-13T21:19:09;17.5;90
74458;SHT31;62896;51.032;3.712;2022-09-13T21:22:29;17.5;90
74458;SHT31;62896;51.032;3.712;2022-09-13T21:25:49;17.5;90
74458;SHT31;62896;51.032;3.712;2022-09-13T21:29:10;17.4;90
74458;SHT31;62896;51.032;3.712;2022-09-13T21:32:29;17.4;90
74458;SHT31;62896;51.032;3.712;2022-09-13T21:35:49;17.4;90
74458;SHT31;62896;51.032;3.712;2022-09-13T21:39:09;17.4;90
74458;SHT31;62896;51.032;3.712;2022-09-13T21:42:29;17.4;90
74458;SHT31;62896;51.032;3.712;2022-09-13T21:45:49;17.4;90
74458;SHT31;62896;51.032;3.712;2022-09-13T21:49:10;17.3;89
74458;SHT31;62896;51.032;3.712;2022-09-13T21:52:29;17.3;89
74458;SHT31;62896;51.032;3.712;2022-09-13T21:55:49;17.3;89
74458;SHT31;62896;51.032;3.712;2022-09-13T21:59:10;17.4;89
74458;SHT31;62896;51.032;3.712;2022-09-13T22:02:29;17.4;89
74458;SHT31;62896;51.032;3.712;2022-09-13T22:05:53;17.4;89
74458;SHT31;62896;51.032;3.712;2022-09-13T22:09:10;17.3;90
74458;SHT31;62896;51.032;3.712;2022-09-13T22:12:29;17.3;90
74458;SHT31;62896;51.032;3.712;2022-09-13T22:15:49;17.3;90
74458;SHT31;62896;51.032;3.712;2022-09-13T22:19:10;17.3;90
74458;SHT31;62896;51.032;3.712;2022-09-13T22:22:29;17.3;90
74458;SHT31;62896;51.032;3.712;2022-09-13T22:25:49;17.3;90
74458;SHT31;62896;51.032;3.712;2022-09-13T22:29:10;17.2;90
74458;SHT31;62896;51.032;3.712;2022-09-13T22:32:29;17.2;90